sensor_id;sensor_type;location;lat;lon;timestamp;P1;durP1;ratioP1;P2;durP2;ratioP2
50769;SDS011;36740;48.698;11.472;2023-06-22T00:02:24;17.63;;;6.75;;
50769;SDS011;36740;48.698;11.472;2023-06-22T00:05:10;18.40;;;5.68;;
50769;SDS011;36740;48.698;11.472;2023-06-22T00:07:55;9.18;;;5.45;;
50769;SDS011;36740;48.698;11.472;2023-06-22T00:10:41;11.52;;;5.90;;
50769;SDS011;36740;48.698;11.472;2023-06-22T00:13:27;8.85;;;4.72;;
50769;SDS011;36740;48.698;11.472;2023-06-22T00:16:12;12.85;;;6.72;;
50769;SDS011;36740;48.698;11.472;2023-06-22T00:18:58;12.48;;;6.68;;
50769;SDS011;36740;48.698;11.472;2023-06-22T00:21:45;13.55;;;5.88;;
50769;SDS011;36740;48.698;11.472;2023-06-22T00:24:32;14.02;;;7.28;;
50769;SDS011;36740;48.698;11.472;2023-06-22T00:27:18;11.55;;;6.05;;
50769;SDS011;36740;48.698;11.472;2023-06-22T00:30:03;9.55;;;5.15;;
50769;SDS011;36740;48.698;11.472;2023-06-22T00:32:49;8.75;;;5.78;;
50769;SDS011;36740;48.698;11.472;2023-06-22T00:35:35;10.05;;;5.95;;
50769;SDS011;36740;48.698;11.472;2023-06-22T00:38:20;9.57;;;5.78;;
50769;SDS011;36740;48.698;11.472;2023-06-22T00:41:06;7.70;;;5.38;;
50769;SDS011;36740;48.698;11.472;2023-06-22T00:43:52;8.75;;;5.70;;
50769;SDS011;36740;48.698;11.472;2023-06-22T00:46:37;11.90;;;6.03;;
50769;SDS011;36740;48.698;11.472;2023-06-22T00:49:23;8.45;;;5.38;;
50769;SDS011;36740;48.698;11.472;2023-06-22T00:52:08;10.82;;;5.53;;
50769;SDS011;36740;48.698;11.472;2023-06-22T00:54:59;11.27;;;7.07;;
50769;SDS011;36740;48.698;11.472;2023-06-22T00:57:47;9.73;;;6.22;;
50769;SDS011;36740;48.698;11.472;2023-06-22T01:00:33;11.80;;;6.75;;
50769;SDS011;36740;48.698;11.472;2023-06-22T01:03:19;26.52;;;7.15;;
50769;SDS011;36740;48.698;11.472;2023-06-22T01:06:07;10.00;;;6.13;;
50769;SDS011;36740;48.698;11.472;2023-06-22T01:09:02;11.30;;;5.45;;
50769;SDS011;36740;48.698;11.472;2023-06-22T01:11:54;12.07;;;5.13;;
50769;SDS011;36740;48.698;11.472;2023-06-22T01:14:43;12.07;;;5.25;;
50769;SDS011;36740;48.698;11.472;2023-06-22T01:17:30;9.48;;;5.82;;
50769;SDS011;36740;48.698;11.472;2023-06-22T01:20:16;11.98;;;6.40;;
50769;SDS011;36740;48.698;11.472;2023-06-22T01:23:17;10.77;;;6.40;;
50769;SDS011;36740;48.698;11.472;2023-06-22T01:28:59;11.65;;;6.20;;
50769;SDS011;36740;48.698;11.472;2023-06-22T01:31:45;15.50;;;6.47;;
50769;SDS011;36740;48.698;11.472;2023-06-22T01:34:32;12.88;;;6.75;;
50769;SDS011;36740;48.698;11.472;2023-06-22T01:37:18;10.35;;;6.18;;
50769;SDS011;36740;48.698;11.472;2023-06-22T01:40:04;20.70;;;6.40;;
50769;SDS011;36740;48.698;11.472;2023-06-22T01:42:51;13.55;;;7.88;;
50769;SDS011;36740;48.698;11.472;2023-06-22T01:45:37;11.63;;;6.85;;
50769;SDS011;36740;48.698;11.472;2023-06-22T01:48:22;10.80;;;6.45;;
50769;SDS011;36740;48.698;11.472;2023-06-22T01:51:08;10.02;;;5.75;;
50769;SDS011;36740;48.698;11.472;2023-06-22T01:53:54;9.93;;;6.55;;
50769;SDS011;36740;48.698;11.472;2023-06-22T01:56:40;12.93;;;7.47;;
50769;SDS011;36740;48.698;11.472;2023-06-22T01:59:32;15.55;;;6.50;;
50769;SDS011;36740;48.698;11.472;2023-06-22T02:02:19;11.50;;;6.28;;
50769;SDS011;36740;48.698;11.472;2023-06-22T02:05:06;13.35;;;6.13;;
50769;SDS011;36740;48.698;11.472;2023-06-22T02:08:07;12.73;;;7.22;;
50769;SDS011;36740;48.698;11.472;2023-06-22T02:10:54;11.95;;;6.38;;
50769;SDS011;36740;48.698;11.472;2023-06-22T02:13:40;11.45;;;6.28;;
50769;SDS011;36740;48.698;11.472;2023-06-22T02:16:28;10.77;;;6.35;;
50769;SDS011;36740;48.698;11.472;2023-06-22T02:19:16;23.00;;;8.18;;
50769;SDS011;36740;48.698;11.472;2023-06-22T02:22:03;11.65;;;6.38;;
50769;SDS011;36740;48.698;11.472;2023-06-22T02:24:49;11.77;;;6.13;;
50769;SDS011;36740;48.698;11.472;2023-06-22T02:27:35;12.20;;;7.30;;
50769;SDS011;36740;48.698;11.472;2023-06-22T02:30:20;13.18;;;7.45;;
50769;SDS011;36740;48.698;11.472;2023-06-22T02:33:06;12.00;;;6.95;;
50769;SDS011;36740;48.698;11.472;2023-06-22T02:35:51;13.60;;;7.93;;
50769;SDS011;36740;48.698;11.472;2023-06-22T02:38:37;13.75;;;7.97;;
50769;SDS011;36740;48.698;11.472;2023-06-22T02:41:23;13.43;;;7.93;;
50769;SDS011;36740;48.698;11.472;2023-06-22T02:44:09;10.65;;;6.28;;
50769;SDS011;36740;48.698;11.472;2023-06-22T02:46:55;12.88;;;7.95;;
50769;SDS011;36740;48.698;11.472;2023-06-22T02:49:40;12.55;;;6.75;;
50769;SDS011;36740;48.698;11.472;2023-06-22T02:52:27;13.70;;;7.47;;
50769;SDS011;36740;48.698;11.472;2023-06-22T02:55:12;12.15;;;8.02;;
50769;SDS011;36740;48.698;11.472;2023-06-22T02:57:58;15.95;;;6.05;;
50769;SDS011;36740;48.698;11.472;2023-06-22T03:00:44;16.40;;;7.20;;
50769;SDS011;36740;48.698;11.472;2023-06-22T03:03:30;13.27;;;6.82;;
50769;SDS011;36740;48.698;11.472;2023-06-22T03:06:16;12.77;;;7.05;;
50769;SDS011;36740;48.698;11.472;2023-06-22T03:09:02;11.15;;;6.75;;
50769;SDS011;36740;48.698;11.472;2023-06-22T03:11:49;17.42;;;8.10;;
50769;SDS011;36740;48.698;11.472;2023-06-22T03:14:34;12.73;;;6.97;;
50769;SDS011;36740;48.698;11.472;2023-06-22T03:17:20;12.73;;;7.47;;
50769;SDS011;36740;48.698;11.472;2023-06-22T03:20:06;12.80;;;6.47;;
50769;SDS011;36740;48.698;11.472;2023-06-22T03:22:56;12.68;;;7.78;;
50769;SDS011;36740;48.698;11.472;2023-06-22T03:25:41;10.38;;;6.78;;
50769;SDS011;36740;48.698;11.472;2023-06-22T03:28:29;11.07;;;6.35;;
50769;SDS011;36740;48.698;11.472;2023-06-22T03:31:15;17.83;;;8.75;;
50769;SDS011;36740;48.698;11.472;2023-06-22T03:34:01;11.27;;;6.53;;
50769;SDS011;36740;48.698;11.472;2023-06-22T03:36:47;19.85;;;8.82;;
50769;SDS011;36740;48.698;11.472;2023-06-22T03:39:32;11.95;;;6.35;;
50769;SDS011;36740;48.698;11.472;2023-06-22T03:42:18;14.23;;;7.88;;
50769;SDS011;36740;48.698;11.472;2023-06-22T03:45:04;10.48;;;6.78;;
50769;SDS011;36740;48.698;11.472;2023-06-22T03:47:49;13.02;;;6.75;;
50769;SDS011;36740;48.698;11.472;2023-06-22T03:50:35;14.93;;;8.20;;
50769;SDS011;36740;48.698;11.472;2023-06-22T03:53:21;14.15;;;5.25;;
50769;SDS011;36740;48.698;11.472;2023-06-22T03:56:06;12.80;;;7.28;;
50769;SDS011;36740;48.698;11.472;2023-06-22T03:58:52;13.65;;;9.07;;
50769;SDS011;36740;48.698;11.472;2023-06-22T04:01:37;10.13;;;6.88;;
50769;SDS011;36740;48.698;11.472;2023-06-22T04:04:23;10.77;;;8.20;;
50769;SDS011;36740;48.698;11.472;2023-06-22T04:07:09;17.77;;;6.45;;
50769;SDS011;36740;48.698;11.472;2023-06-22T04:09:54;16.33;;;8.07;;
50769;SDS011;36740;48.698;11.472;2023-06-22T04:12:40;12.32;;;7.25;;
50769;SDS011;36740;48.698;11.472;2023-06-22T04:15:25;10.60;;;7.25;;
50769;SDS011;36740;48.698;11.472;2023-06-22T04:18:11;10.82;;;7.63;;
50769;SDS011;36740;48.698;11.472;2023-06-22T04:20:57;12.98;;;7.70;;
50769;SDS011;36740;48.698;11.472;2023-06-22T04:23:42;16.92;;;8.15;;
50769;SDS011;36740;48.698;11.472;2023-06-22T04:26:28;13.50;;;9.15;;
50769;SDS011;36740;48.698;11.472;2023-06-22T04:29:14;13.18;;;7.45;;
50769;SDS011;36740;48.698;11.472;2023-06-22T04:32:00;12.20;;;6.75;;
50769;SDS011;36740;48.698;11.472;2023-06-22T04:34:48;12.45;;;7.60;;
50769;SDS011;36740;48.698;11.472;2023-06-22T04:37:34;13.88;;;6.78;;
50769;SDS011;36740;48.698;11.472;2023-06-22T04:40:19;11.82;;;6.97;;
50769;SDS011;36740;48.698;11.472;2023-06-22T04:43:05;11.20;;;7.93;;
50769;SDS011;36740;48.698;11.472;2023-06-22T04:45:51;15.18;;;9.35;;
50769;SDS011;36740;48.698;11.472;2023-06-22T04:48:37;14.63;;;7.85;;
50769;SDS011;36740;48.698;11.472;2023-06-22T04:51:23;22.17;;;9.52;;
50769;SDS011;36740;48.698;11.472;2023-06-22T04:54:15;16.63;;;9.20;;
50769;SDS011;36740;48.698;11.472;2023-06-22T04:57:01;14.38;;;8.75;;
50769;SDS011;36740;48.698;11.472;2023-06-22T04:59:47;14.35;;;8.60;;
50769;SDS011;36740;48.698;11.472;2023-06-22T05:02:32;12.05;;;6.90;;
50769;SDS011;36740;48.698;11.472;2023-06-22T05:05:18;17.38;;;8.80;;
50769;SDS011;36740;48.698;11.472;2023-06-22T05:08:04;13.98;;;8.38;;
50769;SDS011;36740;48.698;11.472;2023-06-22T05:10:52;17.73;;;9.02;;
50769;SDS011;36740;48.698;11.472;2023-06-22T05:13:37;13.70;;;8.75;;
50769;SDS011;36740;48.698;11.472;2023-06-22T05:16:24;14.30;;;8.15;;
50769;SDS011;36740;48.698;11.472;2023-06-22T05:19:09;15.15;;;7.55;;
50769;SDS011;36740;48.698;11.472;2023-06-22T05:21:55;15.45;;;9.18;;
50769;SDS011;36740;48.698;11.472;2023-06-22T05:24:41;16.48;;;8.77;;
50769;SDS011;36740;48.698;11.472;2023-06-22T05:27:27;18.00;;;7.63;;
50769;SDS011;36740;48.698;11.472;2023-06-22T05:30:13;16.80;;;8.75;;
50769;SDS011;36740;48.698;11.472;2023-06-22T05:32:58;14.15;;;7.20;;
50769;SDS011;36740;48.698;11.472;2023-06-22T05:35:44;13.18;;;7.28;;
50769;SDS011;36740;48.698;11.472;2023-06-22T05:38:30;13.85;;;8.00;;
50769;SDS011;36740;48.698;11.472;2023-06-22T05:41:16;17.83;;;7.45;;
50769;SDS011;36740;48.698;11.472;2023-06-22T05:44:01;14.88;;;7.40;;
50769;SDS011;36740;48.698;11.472;2023-06-22T05:46:47;12.45;;;6.55;;
50769;SDS011;36740;48.698;11.472;2023-06-22T05:49:33;21.52;;;8.50;;
50769;SDS011;36740;48.698;11.472;2023-06-22T05:52:19;16.33;;;7.75;;
50769;SDS011;36740;48.698;11.472;2023-06-22T05:55:04;14.05;;;6.10;;
50769;SDS011;36740;48.698;11.472;2023-06-22T05:57:50;18.02;;;8.93;;
50769;SDS011;36740;48.698;11.472;2023-06-22T06:00:36;20.52;;;8.20;;
50769;SDS011;36740;48.698;11.472;2023-06-22T06:03:21;15.38;;;8.00;;
50769;SDS011;36740;48.698;11.472;2023-06-22T06:06:09;11.85;;;7.10;;
50769;SDS011;36740;48.698;11.472;2023-06-22T06:08:56;20.50;;;8.38;;
50769;SDS011;36740;48.698;11.472;2023-06-22T06:11:41;11.77;;;6.70;;
50769;SDS011;36740;48.698;11.472;2023-06-22T06:14:27;14.68;;;8.27;;
50769;SDS011;36740;48.698;11.472;2023-06-22T06:17:13;8.63;;;5.72;;
50769;SDS011;36740;48.698;11.472;2023-06-22T06:19:59;13.75;;;7.88;;
50769;SDS011;36740;48.698;11.472;2023-06-22T06:22:45;13.20;;;6.60;;
50769;SDS011;36740;48.698;11.472;2023-06-22T06:25:32;12.27;;;6.20;;
50769;SDS011;36740;48.698;11.472;2023-06-22T06:28:17;9.43;;;5.93;;
50769;SDS011;36740;48.698;11.472;2023-06-22T06:31:03;10.40;;;5.90;;
50769;SDS011;36740;48.698;11.472;2023-06-22T06:33:52;16.70;;;5.00;;
50769;SDS011;36740;48.698;11.472;2023-06-22T06:36:39;12.07;;;6.38;;
50769;SDS011;36740;48.698;11.472;2023-06-22T06:39:24;16.85;;;6.63;;
50769;SDS011;36740;48.698;11.472;2023-06-22T06:42:10;9.45;;;5.15;;
50769;SDS011;36740;48.698;11.472;2023-06-22T06:44:56;9.20;;;4.50;;
50769;SDS011;36740;48.698;11.472;2023-06-22T06:47:42;11.93;;;6.07;;
50769;SDS011;36740;48.698;11.472;2023-06-22T06:50:28;10.38;;;5.78;;
50769;SDS011;36740;48.698;11.472;2023-06-22T06:53:13;9.80;;;5.10;;
50769;SDS011;36740;48.698;11.472;2023-06-22T06:55:59;8.20;;;5.03;;
50769;SDS011;36740;48.698;11.472;2023-06-22T06:58:45;12.57;;;5.43;;
50769;SDS011;36740;48.698;11.472;2023-06-22T07:01:31;16.33;;;4.63;;
50769;SDS011;36740;48.698;11.472;2023-06-22T07:04:19;8.90;;;5.60;;
50769;SDS011;36740;48.698;11.472;2023-06-22T07:07:04;8.68;;;5.13;;
50769;SDS011;36740;48.698;11.472;2023-06-22T07:09:50;6.18;;;4.20;;
50769;SDS011;36740;48.698;11.472;2023-06-22T07:12:35;19.50;;;5.82;;
50769;SDS011;36740;48.698;11.472;2023-06-22T07:15:21;8.60;;;4.82;;
50769;SDS011;36740;48.698;11.472;2023-06-22T07:18:07;4.57;;;2.53;;
50769;SDS011;36740;48.698;11.472;2023-06-22T07:20:52;8.63;;;3.80;;
50769;SDS011;36740;48.698;11.472;2023-06-22T07:23:38;5.80;;;3.28;;
50769;SDS011;36740;48.698;11.472;2023-06-22T07:26:23;6.78;;;3.28;;
50769;SDS011;36740;48.698;11.472;2023-06-22T07:29:09;6.55;;;4.05;;
50769;SDS011;36740;48.698;11.472;2023-06-22T07:31:55;12.20;;;5.47;;
50769;SDS011;36740;48.698;11.472;2023-06-22T07:34:41;7.22;;;3.75;;
50769;SDS011;36740;48.698;11.472;2023-06-22T07:37:27;9.07;;;4.30;;
50769;SDS011;36740;48.698;11.472;2023-06-22T07:40:13;8.10;;;3.90;;
50769;SDS011;36740;48.698;11.472;2023-06-22T07:42:59;4.50;;;2.72;;
50769;SDS011;36740;48.698;11.472;2023-06-22T07:45:48;6.25;;;3.75;;
50769;SDS011;36740;48.698;11.472;2023-06-22T07:48:37;7.93;;;3.58;;
50769;SDS011;36740;48.698;11.472;2023-06-22T07:51:23;8.25;;;3.58;;
50769;SDS011;36740;48.698;11.472;2023-06-22T07:54:09;6.32;;;2.65;;
50769;SDS011;36740;48.698;11.472;2023-06-22T07:56:55;9.07;;;3.92;;
50769;SDS011;36740;48.698;11.472;2023-06-22T07:59:40;8.32;;;3.30;;
50769;SDS011;36740;48.698;11.472;2023-06-22T08:02:26;7.35;;;3.55;;
50769;SDS011;36740;48.698;11.472;2023-06-22T08:05:13;7.68;;;3.53;;
50769;SDS011;36740;48.698;11.472;2023-06-22T08:07:58;5.93;;;3.60;;
50769;SDS011;36740;48.698;11.472;2023-06-22T08:10:44;8.55;;;3.45;;
50769;SDS011;36740;48.698;11.472;2023-06-22T08:13:30;5.25;;;2.20;;
50769;SDS011;36740;48.698;11.472;2023-06-22T08:16:15;7.13;;;3.22;;
50769;SDS011;36740;48.698;11.472;2023-06-22T08:19:01;8.07;;;3.20;;
50769;SDS011;36740;48.698;11.472;2023-06-22T08:21:47;7.57;;;3.55;;
50769;SDS011;36740;48.698;11.472;2023-06-22T08:24:32;9.57;;;3.35;;
50769;SDS011;36740;48.698;11.472;2023-06-22T08:27:18;5.00;;;2.97;;
50769;SDS011;36740;48.698;11.472;2023-06-22T08:30:06;8.30;;;4.13;;
50769;SDS011;36740;48.698;11.472;2023-06-22T08:32:52;14.25;;;3.25;;
50769;SDS011;36740;48.698;11.472;2023-06-22T08:35:41;7.20;;;3.03;;
50769;SDS011;36740;48.698;11.472;2023-06-22T08:38:27;12.00;;;4.55;;
50769;SDS011;36740;48.698;11.472;2023-06-22T08:41:13;12.15;;;4.70;;
50769;SDS011;36740;48.698;11.472;2023-06-22T08:43:58;12.30;;;4.07;;
50769;SDS011;36740;48.698;11.472;2023-06-22T08:46:44;9.13;;;3.42;;
50769;SDS011;36740;48.698;11.472;2023-06-22T08:49:30;7.60;;;3.47;;
50769;SDS011;36740;48.698;11.472;2023-06-22T08:52:17;7.63;;;3.53;;
50769;SDS011;36740;48.698;11.472;2023-06-22T08:55:03;10.02;;;2.60;;
50769;SDS011;36740;48.698;11.472;2023-06-22T08:57:48;10.82;;;3.80;;
50769;SDS011;36740;48.698;11.472;2023-06-22T09:00:34;8.23;;;3.70;;
50769;SDS011;36740;48.698;11.472;2023-06-22T09:03:20;10.85;;;2.88;;
50769;SDS011;36740;48.698;11.472;2023-06-22T09:06:06;10.10;;;3.58;;
50769;SDS011;36740;48.698;11.472;2023-06-22T09:08:51;8.93;;;3.05;;
50769;SDS011;36740;48.698;11.472;2023-06-22T09:11:37;6.57;;;3.60;;
50769;SDS011;36740;48.698;11.472;2023-06-22T09:14:23;4.82;;;2.83;;
50769;SDS011;36740;48.698;11.472;2023-06-22T09:17:08;7.90;;;3.22;;
50769;SDS011;36740;48.698;11.472;2023-06-22T09:19:54;12.55;;;4.93;;
50769;SDS011;36740;48.698;11.472;2023-06-22T09:22:40;5.55;;;1.90;;
50769;SDS011;36740;48.698;11.472;2023-06-22T09:25:25;10.10;;;3.25;;
50769;SDS011;36740;48.698;11.472;2023-06-22T09:28:11;6.35;;;3.08;;
50769;SDS011;36740;48.698;11.472;2023-06-22T09:30:56;7.18;;;2.92;;
50769;SDS011;36740;48.698;11.472;2023-06-22T09:33:44;5.55;;;2.67;;
50769;SDS011;36740;48.698;11.472;2023-06-22T09:36:29;10.57;;;3.63;;
50769;SDS011;36740;48.698;11.472;2023-06-22T09:39:15;14.27;;;3.92;;
50769;SDS011;36740;48.698;11.472;2023-06-22T09:42:01;11.57;;;4.28;;
50769;SDS011;36740;48.698;11.472;2023-06-22T09:44:46;8.90;;;3.03;;
50769;SDS011;36740;48.698;11.472;2023-06-22T09:47:32;10.98;;;4.30;;
50769;SDS011;36740;48.698;11.472;2023-06-22T09:50:17;13.95;;;4.00;;
50769;SDS011;36740;48.698;11.472;2023-06-22T09:53:03;8.57;;;2.95;;
50769;SDS011;36740;48.698;11.472;2023-06-22T09:55:49;8.88;;;3.47;;
50769;SDS011;36740;48.698;11.472;2023-06-22T09:58:34;9.05;;;3.95;;
50769;SDS011;36740;48.698;11.472;2023-06-22T10:01:20;9.25;;;4.43;;
50769;SDS011;36740;48.698;11.472;2023-06-22T10:04:06;13.55;;;4.28;;
50769;SDS011;36740;48.698;11.472;2023-06-22T10:06:52;8.88;;;3.33;;
50769;SDS011;36740;48.698;11.472;2023-06-22T10:09:38;8.65;;;4.32;;
50769;SDS011;36740;48.698;11.472;2023-06-22T10:12:23;7.78;;;3.95;;
50769;SDS011;36740;48.698;11.472;2023-06-22T10:15:09;6.60;;;3.17;;
50769;SDS011;36740;48.698;11.472;2023-06-22T10:17:55;8.98;;;3.60;;
50769;SDS011;36740;48.698;11.472;2023-06-22T10:20:41;13.88;;;4.15;;
50769;SDS011;36740;48.698;11.472;2023-06-22T10:23:26;7.35;;;2.78;;
50769;SDS011;36740;48.698;11.472;2023-06-22T10:26:12;11.07;;;3.92;;
50769;SDS011;36740;48.698;11.472;2023-06-22T10:28:57;8.25;;;3.58;;
50769;SDS011;36740;48.698;11.472;2023-06-22T10:31:43;15.10;;;4.50;;
50769;SDS011;36740;48.698;11.472;2023-06-22T10:34:29;15.30;;;3.38;;
50769;SDS011;36740;48.698;11.472;2023-06-22T10:37:14;11.30;;;5.07;;
50769;SDS011;36740;48.698;11.472;2023-06-22T10:40:01;5.63;;;2.95;;
50769;SDS011;36740;48.698;11.472;2023-06-22T10:42:48;7.15;;;3.85;;
50769;SDS011;36740;48.698;11.472;2023-06-22T10:45:35;7.82;;;3.60;;
50769;SDS011;36740;48.698;11.472;2023-06-22T10:48:21;10.80;;;3.90;;
50769;SDS011;36740;48.698;11.472;2023-06-22T10:51:06;8.20;;;3.95;;
50769;SDS011;36740;48.698;11.472;2023-06-22T10:53:52;6.95;;;2.92;;
50769;SDS011;36740;48.698;11.472;2023-06-22T10:56:37;11.43;;;3.50;;
50769;SDS011;36740;48.698;11.472;2023-06-22T10:59:23;15.63;;;3.33;;
50769;SDS011;36740;48.698;11.472;2023-06-22T11:02:09;10.35;;;3.15;;
50769;SDS011;36740;48.698;11.472;2023-06-22T11:04:55;8.52;;;3.47;;
50769;SDS011;36740;48.698;11.472;2023-06-22T11:07:43;9.93;;;4.53;;
50769;SDS011;36740;48.698;11.472;2023-06-22T11:10:29;10.90;;;4.68;;
50769;SDS011;36740;48.698;11.472;2023-06-22T11:13:15;6.57;;;3.33;;
50769;SDS011;36740;48.698;11.472;2023-06-22T11:16:01;11.40;;;4.97;;
50769;SDS011;36740;48.698;11.472;2023-06-22T11:18:47;5.32;;;2.50;;
50769;SDS011;36740;48.698;11.472;2023-06-22T11:21:32;11.00;;;3.42;;
50769;SDS011;36740;48.698;11.472;2023-06-22T11:24:18;10.95;;;4.55;;
50769;SDS011;36740;48.698;11.472;2023-06-22T11:27:03;6.15;;;2.90;;
50769;SDS011;36740;48.698;11.472;2023-06-22T11:29:49;12.43;;;4.28;;
50769;SDS011;36740;48.698;11.472;2023-06-22T11:32:35;10.60;;;4.28;;
50769;SDS011;36740;48.698;11.472;2023-06-22T11:35:21;9.95;;;3.28;;
50769;SDS011;36740;48.698;11.472;2023-06-22T11:38:06;7.82;;;3.13;;
50769;SDS011;36740;48.698;11.472;2023-06-22T11:40:53;8.00;;;3.45;;
50769;SDS011;36740;48.698;11.472;2023-06-22T11:43:38;10.90;;;3.53;;
50769;SDS011;36740;48.698;11.472;2023-06-22T11:46:24;8.60;;;4.07;;
50769;SDS011;36740;48.698;11.472;2023-06-22T11:49:09;7.65;;;3.88;;
50769;SDS011;36740;48.698;11.472;2023-06-22T11:51:55;6.82;;;3.20;;
50769;SDS011;36740;48.698;11.472;2023-06-22T11:54:41;9.50;;;3.00;;
50769;SDS011;36740;48.698;11.472;2023-06-22T11:57:26;9.13;;;4.05;;
50769;SDS011;36740;48.698;11.472;2023-06-22T12:00:12;8.20;;;4.50;;
50769;SDS011;36740;48.698;11.472;2023-06-22T12:03:03;15.43;;;3.90;;
50769;SDS011;36740;48.698;11.472;2023-06-22T12:05:50;9.05;;;4.20;;
50769;SDS011;36740;48.698;11.472;2023-06-22T12:08:37;7.83;;;3.37;;
50769;SDS011;36740;48.698;11.472;2023-06-22T12:11:23;8.50;;;3.38;;
50769;SDS011;36740;48.698;11.472;2023-06-22T12:14:08;8.73;;;4.35;;
50769;SDS011;36740;48.698;11.472;2023-06-22T12:16:54;7.70;;;4.22;;
50769;SDS011;36740;48.698;11.472;2023-06-22T12:19:40;10.02;;;3.33;;
50769;SDS011;36740;48.698;11.472;2023-06-22T12:22:25;10.82;;;3.58;;
50769;SDS011;36740;48.698;11.472;2023-06-22T12:25:11;11.13;;;3.35;;
50769;SDS011;36740;48.698;11.472;2023-06-22T12:27:56;22.67;;;4.32;;
50769;SDS011;36740;48.698;11.472;2023-06-22T12:30:42;10.30;;;3.50;;
50769;SDS011;36740;48.698;11.472;2023-06-22T12:33:31;8.75;;;3.65;;
50769;SDS011;36740;48.698;11.472;2023-06-22T12:39:02;10.13;;;3.70;;
50769;SDS011;36740;48.698;11.472;2023-06-22T12:41:48;8.32;;;3.10;;
50769;SDS011;36740;48.698;11.472;2023-06-22T12:44:34;13.10;;;3.67;;
50769;SDS011;36740;48.698;11.472;2023-06-22T12:47:20;11.85;;;3.28;;
50769;SDS011;36740;48.698;11.472;2023-06-22T12:50:05;12.13;;;3.72;;
50769;SDS011;36740;48.698;11.472;2023-06-22T12:52:51;9.20;;;3.15;;
50769;SDS011;36740;48.698;11.472;2023-06-22T12:55:37;8.32;;;3.65;;
50769;SDS011;36740;48.698;11.472;2023-06-22T12:58:23;7.10;;;3.58;;
50769;SDS011;36740;48.698;11.472;2023-06-22T13:01:09;8.77;;;4.30;;
50769;SDS011;36740;48.698;11.472;2023-06-22T13:03:55;10.18;;;4.30;;
50769;SDS011;36740;48.698;11.472;2023-06-22T13:06:44;9.07;;;4.35;;
50769;SDS011;36740;48.698;11.472;2023-06-22T13:09:32;17.20;;;4.57;;
50769;SDS011;36740;48.698;11.472;2023-06-22T13:12:20;10.02;;;4.45;;
50769;SDS011;36740;48.698;11.472;2023-06-22T13:15:06;13.18;;;4.78;;
50769;SDS011;36740;48.698;11.472;2023-06-22T13:17:52;11.88;;;3.47;;
50769;SDS011;36740;48.698;11.472;2023-06-22T13:20:37;8.05;;;3.60;;
50769;SDS011;36740;48.698;11.472;2023-06-22T13:23:23;16.92;;;4.60;;
50769;SDS011;36740;48.698;11.472;2023-06-22T13:26:09;10.35;;;4.13;;
50769;SDS011;36740;48.698;11.472;2023-06-22T13:28:54;9.05;;;3.53;;
50769;SDS011;36740;48.698;11.472;2023-06-22T13:31:40;11.10;;;4.57;;
50769;SDS011;36740;48.698;11.472;2023-06-22T13:34:26;11.77;;;3.65;;
50769;SDS011;36740;48.698;11.472;2023-06-22T13:37:12;16.65;;;3.50;;
50769;SDS011;36740;48.698;11.472;2023-06-22T13:39:57;11.15;;;4.38;;
50769;SDS011;36740;48.698;11.472;2023-06-22T13:42:44;16.05;;;3.33;;
50769;SDS011;36740;48.698;11.472;2023-06-22T13:45:30;16.90;;;5.13;;
50769;SDS011;36740;48.698;11.472;2023-06-22T13:48:16;14.35;;;3.90;;
50769;SDS011;36740;48.698;11.472;2023-06-22T13:51:01;11.52;;;4.22;;
50769;SDS011;36740;48.698;11.472;2023-06-22T13:53:47;8.77;;;4.60;;
50769;SDS011;36740;48.698;11.472;2023-06-22T13:56:33;10.82;;;4.05;;
50769;SDS011;36740;48.698;11.472;2023-06-22T13:59:18;17.10;;;4.05;;
50769;SDS011;36740;48.698;11.472;2023-06-22T14:02:05;13.40;;;4.45;;
50769;SDS011;36740;48.698;11.472;2023-06-22T14:04:51;8.10;;;4.28;;
50769;SDS011;36740;48.698;11.472;2023-06-22T14:07:36;15.38;;;4.65;;
50769;SDS011;36740;48.698;11.472;2023-06-22T14:10:22;11.95;;;3.90;;
50769;SDS011;36740;48.698;11.472;2023-06-22T14:13:08;16.73;;;3.63;;
50769;SDS011;36740;48.698;11.472;2023-06-22T14:15:54;7.15;;;3.55;;
50769;SDS011;36740;48.698;11.472;2023-06-22T14:18:39;18.65;;;4.43;;
50769;SDS011;36740;48.698;11.472;2023-06-22T14:21:25;13.45;;;3.95;;
50769;SDS011;36740;48.698;11.472;2023-06-22T14:24:11;6.93;;;3.60;;
50769;SDS011;36740;48.698;11.472;2023-06-22T14:26:57;13.23;;;4.03;;
50769;SDS011;36740;48.698;11.472;2023-06-22T14:29:42;13.43;;;4.57;;
50769;SDS011;36740;48.698;11.472;2023-06-22T14:32:28;10.88;;;4.18;;
50769;SDS011;36740;48.698;11.472;2023-06-22T14:35:17;15.57;;;3.83;;
50769;SDS011;36740;48.698;11.472;2023-06-22T14:38:02;13.15;;;3.92;;
50769;SDS011;36740;48.698;11.472;2023-06-22T14:40:48;8.45;;;4.07;;
50769;SDS011;36740;48.698;11.472;2023-06-22T14:43:33;11.18;;;3.67;;
50769;SDS011;36740;48.698;11.472;2023-06-22T14:46:19;14.90;;;4.72;;
50769;SDS011;36740;48.698;11.472;2023-06-22T14:49:05;9.38;;;3.80;;
50769;SDS011;36740;48.698;11.472;2023-06-22T14:51:51;7.22;;;4.05;;
50769;SDS011;36740;48.698;11.472;2023-06-22T14:54:36;14.70;;;3.95;;
50769;SDS011;36740;48.698;11.472;2023-06-22T14:57:22;10.57;;;5.00;;
50769;SDS011;36740;48.698;11.472;2023-06-22T15:00:08;14.98;;;4.53;;
50769;SDS011;36740;48.698;11.472;2023-06-22T15:02:54;9.88;;;4.15;;
50769;SDS011;36740;48.698;11.472;2023-06-22T15:05:40;13.40;;;4.20;;
50769;SDS011;36740;48.698;11.472;2023-06-22T15:08:25;9.38;;;3.60;;
50769;SDS011;36740;48.698;11.472;2023-06-22T15:11:11;13.77;;;5.30;;
50769;SDS011;36740;48.698;11.472;2023-06-22T15:13:58;15.82;;;4.97;;
50769;SDS011;36740;48.698;11.472;2023-06-22T15:16:44;11.73;;;4.75;;
50769;SDS011;36740;48.698;11.472;2023-06-22T15:19:29;7.93;;;4.00;;
50769;SDS011;36740;48.698;11.472;2023-06-22T15:22:15;9.73;;;4.40;;
50769;SDS011;36740;48.698;11.472;2023-06-22T15:25:03;8.10;;;3.63;;
50769;SDS011;36740;48.698;11.472;2023-06-22T15:27:49;8.10;;;4.28;;
50769;SDS011;36740;48.698;11.472;2023-06-22T15:30:34;7.57;;;4.05;;
50769;SDS011;36740;48.698;11.472;2023-06-22T15:33:20;14.15;;;3.45;;
50769;SDS011;36740;48.698;11.472;2023-06-22T15:36:06;12.48;;;5.03;;
50769;SDS011;36740;48.698;11.472;2023-06-22T15:38:52;11.55;;;4.03;;
50769;SDS011;36740;48.698;11.472;2023-06-22T15:41:41;11.10;;;3.97;;
50769;SDS011;36740;48.698;11.472;2023-06-22T15:44:27;14.18;;;3.90;;
50769;SDS011;36740;48.698;11.472;2023-06-22T15:47:13;7.80;;;3.63;;
50769;SDS011;36740;48.698;11.472;2023-06-22T15:49:58;15.63;;;4.50;;
50769;SDS011;36740;48.698;11.472;2023-06-22T15:52:44;10.85;;;4.25;;
50769;SDS011;36740;48.698;11.472;2023-06-22T15:55:35;9.68;;;3.63;;
50769;SDS011;36740;48.698;11.472;2023-06-22T15:58:21;9.50;;;3.50;;
50769;SDS011;36740;48.698;11.472;2023-06-22T16:01:06;12.20;;;3.58;;
50769;SDS011;36740;48.698;11.472;2023-06-22T16:03:54;8.63;;;3.97;;
50769;SDS011;36740;48.698;11.472;2023-06-22T16:06:39;11.75;;;4.78;;
50769;SDS011;36740;48.698;11.472;2023-06-22T16:09:26;14.23;;;4.35;;
50769;SDS011;36740;48.698;11.472;2023-06-22T16:12:11;15.10;;;3.53;;
50769;SDS011;36740;48.698;11.472;2023-06-22T16:14:57;10.63;;;3.92;;
50769;SDS011;36740;48.698;11.472;2023-06-22T16:17:42;6.47;;;3.47;;
50769;SDS011;36740;48.698;11.472;2023-06-22T16:20:28;16.58;;;4.80;;
50769;SDS011;36740;48.698;11.472;2023-06-22T16:23:14;13.52;;;3.90;;